createdAt,value
2022-12-22T00:02:09.249Z,95585.58
2022-12-22T00:04:55.977Z,95581.98
2022-12-22T00:07:42.308Z,95580.42
2022-12-22T00:10:29.287Z,95574.88
2022-12-22T00:13:15.926Z,95582.19
2022-12-22T00:16:02.491Z,95579.16
2022-12-22T00:18:49.079Z,95585.53
2022-12-22T00:21:35.576Z,95584.80
2022-12-22T00:24:22.133Z,95581.69
2022-12-22T00:27:08.264Z,95580.53
2022-12-22T00:29:57.595Z,95584.52
2022-12-22T00:32:49.381Z,95582.47
2022-12-22T00:35:35.775Z,95583.42
2022-12-22T00:38:24.940Z,95584.98
2022-12-22T00:41:14.631Z,95578.55
2022-12-22T00:44:01.068Z,95580.77
2022-12-22T00:46:48.222Z,95572.63
2022-12-22T00:49:35.117Z,95575.23
2022-12-22T00:52:22.938Z,95571.77
2022-12-22T00:55:11.967Z,95562.84
2022-12-22T00:58:00.639Z,95537.67
2022-12-22T01:00:47.901Z,95569.16
2022-12-22T01:03:34.924Z,95566.80
2022-12-22T01:06:22.218Z,95566.13
2022-12-22T01:09:08.973Z,95561.76
2022-12-22T01:11:55.345Z,95561.23
2022-12-22T01:14:42.267Z,95552.37
2022-12-22T01:17:32.923Z,95551.73
2022-12-22T01:20:19.576Z,95551.84
2022-12-22T01:23:07.540Z,95543.83
2022-12-22T01:25:54.143Z,95541.39
2022-12-22T01:28:40.649Z,95536.95
2022-12-22T01:31:39.228Z,95533.23
2022-12-22T01:34:29.140Z,95538.78
2022-12-22T01:37:15.914Z,95538.91
2022-12-22T01:40:02.519Z,95536.73
2022-12-22T01:42:52.363Z,95542.17
2022-12-22T01:45:44.325Z,95542.49
2022-12-22T01:48:33.519Z,95541.70
2022-12-22T01:51:23.303Z,95543.02
2022-12-22T01:54:10.385Z,95537.55
2022-12-22T01:56:57.627Z,95537.62
2022-12-22T01:59:44.042Z,95539.38
2022-12-22T02:02:30.866Z,95546.30
2022-12-22T02:05:20.356Z,95548.52
2022-12-22T02:08:21.893Z,95543.62
2022-12-22T02:11:30.743Z,95540.33
2022-12-22T02:14:41.354Z,95539.27
2022-12-22T02:17:36.496Z,95536.20
2022-12-22T02:20:37.523Z,95524.30
2022-12-22T02:23:35.813Z,95540.37
2022-12-22T02:26:30.678Z,95537.44
2022-12-22T02:29:17.620Z,95534.86
2022-12-22T02:32:07.585Z,95535.89
2022-12-22T02:34:54.432Z,95535.86
2022-12-22T02:37:46.791Z,95539.27
2022-12-22T02:40:41.738Z,95538.88
2022-12-22T02:43:49.189Z,95529.73
2022-12-22T02:46:47.711Z,95531.86
2022-12-22T02:49:36.917Z,95532.10
2022-12-22T02:52:29.163Z,95532.13
2022-12-22T02:55:16.756Z,95528.97
2022-12-22T02:58:03.266Z,95526.08
2022-12-22T03:00:50.299Z,95522.19
2022-12-22T03:03:37.445Z,95523.77
2022-12-22T03:06:24.522Z,95524.83
2022-12-22T03:09:11.064Z,95526.45
2022-12-22T03:11:57.543Z,95518.92
2022-12-22T03:14:44.320Z,95525.45
2022-12-22T03:17:31.062Z,95519.98
2022-12-22T03:20:17.662Z,95525.70
2022-12-22T03:23:04.581Z,95522.59
2022-12-22T03:25:55.784Z,95528.50
2022-12-22T03:28:27.619Z,95529.83
2022-12-22T03:31:01.286Z,95527.97
2022-12-22T03:33:31.422Z,95522.53
2022-12-22T03:36:00.587Z,95525.08
2022-12-22T03:38:30.211Z,95526.41
2022-12-22T03:40:59.012Z,95523.92
2022-12-22T03:43:46.016Z,95521.38
2022-12-22T03:46:34.388Z,95526.36
2022-12-22T03:49:11.915Z,95523.62
2022-12-22T03:51:45.708Z,95526.73
2022-12-22T03:54:20.258Z,95524.36
2022-12-22T03:56:49.455Z,95533.47
2022-12-22T03:59:19.201Z,95531.39
2022-12-22T04:01:56.624Z,95532.10
2022-12-22T04:04:27.655Z,95521.70
2022-12-22T04:06:56.734Z,95526.39
2022-12-22T04:09:27.206Z,95527.47
2022-12-22T04:12:14.431Z,95532.63
2022-12-22T04:14:42.991Z,95526.73
2022-12-22T04:17:13.252Z,95524.92
2022-12-22T04:19:43.534Z,95522.13
2022-12-22T04:22:12.206Z,95528.84
2022-12-22T04:24:40.808Z,95519.17
2022-12-22T04:27:09.512Z,95525.39
2022-12-22T04:29:38.062Z,95521.73
2022-12-22T04:32:08.004Z,95522.28
2022-12-22T04:34:36.746Z,95518.56
2022-12-22T04:37:14.882Z,95521.73
2022-12-22T04:39:35.856Z,95523.06
2022-12-22T04:42:04.652Z,95521.66
2022-12-22T04:44:33.458Z,95519.02
2022-12-22T04:47:02.073Z,95527.72
2022-12-22T04:49:30.758Z,95524.36
2022-12-22T04:52:00.974Z,95529.52
2022-12-22T04:54:29.679Z,95526.01
2022-12-22T04:56:58.339Z,95522.87
2022-12-22T04:59:27.049Z,95520.26
2022-12-22T05:01:55.849Z,95517.93
2022-12-22T05:04:24.786Z,95519.52
2022-12-22T05:06:54.950Z,95511.26
2022-12-22T05:09:23.581Z,95512.09
2022-12-22T05:11:52.321Z,95515.23
2022-12-22T05:14:21.220Z,95518.62
2022-12-22T05:16:49.923Z,95522.25
2022-12-22T05:19:20.184Z,95518.09
2022-12-22T05:21:49.032Z,95522.03
2022-12-22T05:24:24.427Z,95522.78
2022-12-22T05:27:11.123Z,95527.97
2022-12-22T05:29:40.142Z,95525.64
2022-12-22T05:32:08.719Z,95532.44
2022-12-22T05:34:37.383Z,95535.83
2022-12-22T05:37:06.225Z,95536.83
2022-12-22T05:39:34.983Z,95535.05
2022-12-22T05:42:03.881Z,95532.63
2022-12-22T05:44:33.150Z,95531.79
2022-12-22T05:47:01.918Z,95527.87
2022-12-22T05:49:30.473Z,95530.73
2022-12-22T05:51:59.445Z,95527.16
2022-12-22T05:54:28.020Z,95531.05
2022-12-22T05:56:56.718Z,95531.08
2022-12-22T05:59:26.774Z,95532.38
2022-12-22T06:01:55.526Z,95531.83
2022-12-22T06:04:24.524Z,95535.02
2022-12-22T06:06:53.366Z,95531.58
2022-12-22T06:09:21.999Z,95535.67
2022-12-22T06:11:50.779Z,95537.97
2022-12-22T06:14:19.423Z,95534.71
2022-12-22T06:16:48.091Z,95538.34
2022-12-22T06:19:19.929Z,95536.98
2022-12-22T06:21:48.624Z,95539.24
2022-12-22T06:24:17.354Z,95535.36
2022-12-22T06:26:45.928Z,95531.83
2022-12-22T06:29:14.627Z,95530.77
2022-12-22T06:31:47.798Z,95534.41
2022-12-22T06:34:18.101Z,95541.56
2022-12-22T06:36:54.035Z,95548.83
2022-12-22T06:39:32.507Z,95542.66
2022-12-22T06:42:19.509Z,95540.21
2022-12-22T06:44:49.774Z,95549.31
2022-12-22T06:47:18.867Z,95545.59
2022-12-22T06:49:47.477Z,95543.91
2022-12-22T06:52:16.031Z,95548.89
2022-12-22T06:54:44.878Z,95547.34
2022-12-22T06:57:13.610Z,95552.33
2022-12-22T06:59:42.217Z,95552.95
2022-12-22T07:02:12.768Z,95554.12
2022-12-22T07:04:43.083Z,95552.14
2022-12-22T07:07:12.390Z,95543.02
2022-12-22T07:09:41.033Z,95545.58
2022-12-22T07:12:09.750Z,95549.86
2022-12-22T07:14:40.584Z,95550.39
2022-12-22T07:17:09.211Z,95546.48
2022-12-22T07:19:37.840Z,95551.66
2022-12-22T07:22:06.462Z,95552.37
2022-12-22T07:24:36.577Z,95555.95
2022-12-22T07:27:05.339Z,95510.38
2022-12-22T07:29:38.162Z,95553.54
2022-12-22T07:32:07.506Z,95550.81
2022-12-22T07:34:36.451Z,95554.87
2022-12-22T07:37:05.181Z,95550.87
2022-12-22T07:39:33.860Z,95549.97
2022-12-22T07:42:20.615Z,95548.95
2022-12-22T07:44:49.157Z,95550.04
2022-12-22T07:47:20.703Z,95554.22
2022-12-22T07:50:07.274Z,95557.22
2022-12-22T07:52:36.265Z,95563.75
2022-12-22T07:55:05.602Z,95558.96
2022-12-22T07:57:36.138Z,95556.98
2022-12-22T08:00:12.153Z,95557.53
2022-12-22T08:02:46.361Z,95549.05
2022-12-22T08:05:15.961Z,95555.78
2022-12-22T08:07:47.350Z,95554.53
2022-12-22T08:10:20.637Z,95548.13
2022-12-22T08:12:53.645Z,95544.33
2022-12-22T08:15:34.879Z,95542.19
2022-12-22T08:18:07.165Z,95544.72
2022-12-22T08:23:44.051Z,95548.61
2022-12-22T08:26:36.242Z,95544.80
2022-12-22T08:29:45.328Z,95540.89
2022-12-22T08:32:19.556Z,95549.13
2022-12-22T08:34:53.696Z,95552.59
2022-12-22T08:40:52.667Z,95548.83
2022-12-22T08:43:30.851Z,95468.52
2022-12-22T08:46:07.654Z,95539.45
2022-12-22T08:48:41.134Z,95545.70
2022-12-22T08:51:22.923Z,95537.75
2022-12-22T08:54:06.172Z,95532.77
2022-12-22T08:57:04.982Z,95534.31
2022-12-22T08:59:53.816Z,95528.66
2022-12-22T09:02:34.793Z,95524.73
2022-12-22T09:08:02.641Z,95527.77
2022-12-22T09:10:43.894Z,95519.55
2022-12-22T09:16:48.203Z,95502.91
2022-12-22T09:25:20.439Z,95495.46
2022-12-22T09:27:49.335Z,95496.20
2022-12-22T09:30:18.195Z,95485.84
2022-12-22T09:32:47.396Z,95483.98
2022-12-22T09:35:17.556Z,95485.64
2022-12-22T09:37:46.354Z,95491.34
2022-12-22T09:40:14.888Z,95487.64
2022-12-22T09:42:43.748Z,95489.50
2022-12-22T09:45:19.525Z,95487.94
2022-12-22T09:47:56.118Z,95482.52
2022-12-22T09:50:34.397Z,95480.95
2022-12-22T09:53:05.623Z,95476.48
2022-12-22T09:55:48.179Z,95475.36
2022-12-22T09:58:37.839Z,95469.45
2022-12-22T10:01:31.033Z,95473.21
2022-12-22T10:04:14.275Z,95466.52
2022-12-22T10:06:55.249Z,95455.77
2022-12-22T10:09:49.751Z,95455.77
2022-12-22T10:15:12.368Z,95428.78
2022-12-22T10:20:57.810Z,95430.20
2022-12-22T10:23:36.504Z,95419.30
2022-12-22T10:26:33.115Z,95413.55
2022-12-22T10:28:59.735Z,95413.63
2022-12-22T10:31:43.969Z,95410.11
2022-12-22T10:34:33.394Z,95406.01
2022-12-22T10:37:03.717Z,95409.77
2022-12-22T10:39:40.875Z,95404.09
2022-12-22T10:42:31.341Z,95398.52
2022-12-22T10:48:01.543Z,95393.92
2022-12-22T10:50:39.910Z,95391.58
2022-12-22T10:53:32.936Z,95381.98
2022-12-22T10:58:10.151Z,95384.12
2022-12-22T10:59:19.871Z,95384.47
2022-12-22T11:02:03.368Z,95385.15
2022-12-22T11:04:43.665Z,95371.19
2022-12-22T11:08:12.330Z,95365.28
2022-12-22T11:10:27.162Z,95372.55
2022-12-22T11:13:07.871Z,95364.50
2022-12-22T11:15:51.559Z,95357.88
2022-12-22T11:18:49.585Z,95353.14
2022-12-22T11:21:11.573Z,95354.25
2022-12-22T11:24:03.416Z,95353.48
2022-12-22T11:26:48.021Z,95337.70
2022-12-22T11:29:28.161Z,95345.11
2022-12-22T11:32:09.974Z,95345.55
2022-12-22T11:35:03.679Z,95338.72
2022-12-22T11:37:50.506Z,95338.25
2022-12-22T11:40:28.010Z,95339.78
2022-12-22T11:43:32.739Z,95334.50
2022-12-22T11:46:19.343Z,95334.96
2022-12-22T11:49:07.885Z,95332.95
2022-12-22T11:51:48.561Z,95327.64
2022-12-22T11:54:35.436Z,95319.92
2022-12-22T11:57:47.506Z,95322.97
2022-12-22T12:03:40.123Z,95319.72
2022-12-22T12:06:20.793Z,95316.80
2022-12-22T12:12:34.518Z,95307.08
2022-12-22T12:15:25.856Z,95300.00
2022-12-22T12:25:25.417Z,95293.25
2022-12-22T12:27:49.394Z,95287.39
2022-12-22T12:28:33.102Z,95298.44
2022-12-22T12:33:08.417Z,95289.88
2022-12-22T12:35:42.736Z,95290.52
2022-12-22T12:38:39.404Z,95288.81
2022-12-22T12:41:06.776Z,95287.58
2022-12-22T12:43:36.403Z,95284.02
2022-12-22T12:46:25.923Z,95289.73
2022-12-22T12:48:55.037Z,95284.97
2022-12-22T12:51:51.781Z,95279.42
2022-12-22T12:54:35.599Z,95274.36
2022-12-22T12:57:10.022Z,95276.05
2022-12-22T12:59:47.078Z,95275.59
2022-12-22T13:02:36.922Z,95270.21
2022-12-22T13:05:16.240Z,95274.33
2022-12-22T13:08:10.777Z,95265.30
2022-12-22T13:10:53.522Z,95267.53
2022-12-22T13:13:27.963Z,95267.95
2022-12-22T13:16:05.889Z,95271.75
2022-12-22T13:18:51.355Z,95268.82
2022-12-22T13:24:25.977Z,95269.29
2022-12-22T13:26:54.225Z,95268.13
2022-12-22T13:49:20.553Z,95256.18
2022-12-22T13:51:46.897Z,95255.52
2022-12-22T13:54:23.674Z,95249.81
2022-12-22T13:56:57.355Z,95251.35
2022-12-22T13:59:31.902Z,95249.28
2022-12-22T14:02:03.724Z,95252.72
2022-12-22T14:04:32.772Z,95249.98
2022-12-22T14:10:15.756Z,95243.84
2022-12-22T14:12:58.980Z,95243.61
2022-12-22T14:21:33.605Z,95237.95
2022-12-22T14:24:04.045Z,95238.41
2022-12-22T14:26:36.228Z,95235.98
2022-12-22T14:29:07.248Z,95238.41
2022-12-22T14:31:59.951Z,95235.13
2022-12-22T14:34:39.130Z,95237.13
2022-12-22T14:37:11.267Z,95237.55
2022-12-22T14:39:39.923Z,95239.86
2022-12-22T14:42:11.648Z,95236.91
2022-12-22T14:44:50.431Z,95233.34
2022-12-22T14:47:21.895Z,95239.09
2022-12-22T14:50:04.871Z,95243.89
2022-12-22T14:52:48.820Z,95244.98
2022-12-22T14:55:35.920Z,95240.55
2022-12-22T14:58:07.483Z,95247.77
2022-12-22T15:00:42.206Z,95245.99
2022-12-22T15:03:38.472Z,95247.95
2022-12-22T15:06:32.139Z,95246.25
2022-12-22T15:09:12.834Z,95252.56
2022-12-22T15:11:47.853Z,95251.86
2022-12-22T15:14:22.599Z,95250.63
2022-12-22T15:16:53.514Z,95256.04
2022-12-22T15:19:26.632Z,95251.34
2022-12-22T15:21:58.086Z,95248.24
2022-12-22T15:24:27.265Z,95248.08
2022-12-22T15:26:56.427Z,95255.21
2022-12-22T15:29:25.532Z,95251.16
2022-12-22T15:31:54.349Z,95249.98
2022-12-22T15:34:28.825Z,95249.98
2022-12-22T15:36:57.768Z,95249.09
2022-12-22T15:39:26.845Z,95249.09
2022-12-22T15:41:55.897Z,95255.06
2022-12-22T15:44:24.439Z,95262.20
2022-12-22T15:47:00.196Z,95268.26
2022-12-22T15:49:31.415Z,95268.03
2022-12-22T15:52:15.290Z,95276.73
2022-12-22T15:54:44.757Z,95267.13
2022-12-22T15:57:15.419Z,95272.41
2022-12-22T15:59:44.290Z,95273.20
2022-12-22T16:02:16.362Z,95268.23
2022-12-22T16:07:25.857Z,95264.70
2022-12-22T16:09:57.402Z,95273.98
2022-12-22T16:12:25.755Z,95274.51
2022-12-22T16:14:57.482Z,95278.30
2022-12-22T16:17:28.086Z,95282.72
2022-12-22T16:19:56.758Z,95280.41
2022-12-22T16:22:36.023Z,95288.36
2022-12-22T16:25:07.737Z,95292.62
2022-12-22T16:27:41.967Z,95289.59
2022-12-22T16:30:16.384Z,95284.16
2022-12-22T16:32:48.121Z,95288.64
2022-12-22T16:35:20.058Z,95283.38
2022-12-22T16:37:51.880Z,95282.47
2022-12-22T16:40:24.122Z,95278.27
2022-12-22T16:46:28.855Z,95281.16
2022-12-22T16:48:46.287Z,95280.83
2022-12-22T16:51:28.468Z,95276.53
2022-12-22T16:53:57.271Z,95270.59
2022-12-22T16:56:28.043Z,95273.45
2022-12-22T16:58:57.329Z,95263.70
2022-12-22T17:01:53.595Z,95276.02
2022-12-22T17:04:28.533Z,95270.51
2022-12-22T17:07:00.155Z,95270.95
2022-12-22T17:09:34.836Z,95269.73
2022-12-22T17:12:05.206Z,95270.81
2022-12-22T17:14:36.985Z,95270.41
2022-12-22T17:17:09.450Z,95271.48
2022-12-22T17:19:38.545Z,95274.83
2022-12-22T17:22:11.185Z,95284.47
2022-12-22T17:24:43.371Z,95287.67
2022-12-22T17:27:16.461Z,95288.59
2022-12-22T17:29:50.119Z,95272.56
2022-12-22T17:32:30.303Z,95290.81
2022-12-22T17:38:04.944Z,95287.83
2022-12-22T17:40:34.691Z,95288.03
2022-12-22T17:43:03.409Z,95285.79
2022-12-22T17:45:32.128Z,95284.17
2022-12-22T17:48:00.942Z,95286.72
2022-12-22T17:50:37.991Z,95284.52
2022-12-22T17:53:09.101Z,95287.30
2022-12-22T17:58:13.659Z,95286.05
2022-12-22T18:00:42.342Z,95287.56
2022-12-22T18:03:16.233Z,95289.19
2022-12-22T18:05:48.083Z,95285.69
2022-12-22T18:08:19.816Z,95285.56
2022-12-22T18:10:49.761Z,95276.45
2022-12-22T18:13:21.447Z,95284.03
2022-12-22T18:15:50.223Z,95281.56
2022-12-22T18:18:21.029Z,95275.11
2022-12-22T18:21:05.865Z,95278.94
2022-12-22T18:23:46.069Z,95280.63
2022-12-22T18:26:11.099Z,95294.75
2022-12-22T18:28:39.756Z,95293.63
2022-12-22T18:31:08.394Z,95291.01
2022-12-22T18:33:37.056Z,95302.44
2022-12-22T18:36:05.948Z,95290.05
2022-12-22T18:38:36.298Z,95292.06
2022-12-22T18:41:05.232Z,95296.38
2022-12-22T18:43:34.226Z,95301.97
2022-12-22T18:46:03.037Z,95303.39
2022-12-22T18:48:31.729Z,95300.53
2022-12-22T18:51:00.407Z,95297.73
2022-12-22T18:53:31.520Z,95296.45
2022-12-22T18:56:01.772Z,95298.61
2022-12-22T18:58:33.919Z,95304.52
2022-12-22T19:01:07.042Z,95303.75
2022-12-22T19:03:38.262Z,95303.33
2022-12-22T19:06:09.696Z,95305.07
2022-12-22T19:08:45.099Z,95297.41
2022-12-22T19:11:11.011Z,95297.42
2022-12-22T19:13:47.001Z,95300.13
2022-12-22T19:16:18.152Z,95301.87
2022-12-22T19:18:48.961Z,95303.56
2022-12-22T19:21:19.352Z,95307.00
2022-12-22T19:23:49.547Z,95306.34
2022-12-22T19:33:22.580Z,95310.23
2022-12-22T19:51:44.252Z,95298.57
2022-12-22T19:54:13.248Z,95302.62
2022-12-22T19:56:44.457Z,95309.89
2022-12-22T19:59:35.689Z,95317.27
2022-12-22T20:01:59.009Z,95309.88
2022-12-22T20:04:28.111Z,95308.22
2022-12-22T20:06:56.781Z,95308.22
2022-12-22T20:09:25.579Z,95312.38
2022-12-22T20:11:54.392Z,95314.91
2022-12-22T20:14:23.015Z,95315.38
2022-12-22T20:16:51.843Z,95319.11
2022-12-22T20:19:21.698Z,95318.41
2022-12-22T20:21:50.369Z,95323.72
2022-12-22T20:24:22.502Z,95327.75
2022-12-22T20:26:54.471Z,95325.97
2022-12-22T20:29:21.468Z,95324.31
2022-12-22T20:31:50.144Z,95322.94
2022-12-22T20:34:18.866Z,95325.98
2022-12-22T20:36:51.039Z,95317.80
2022-12-22T20:39:21.435Z,95318.64
2022-12-22T20:41:53.724Z,95318.18
2022-12-22T20:52:19.129Z,95312.03
2022-12-22T20:57:36.798Z,95313.22
2022-12-22T21:06:37.772Z,95317.63
2022-12-22T21:09:26.173Z,95320.73
2022-12-22T21:12:05.249Z,95316.45
2022-12-22T21:14:35.641Z,95321.43
2022-12-22T21:17:04.543Z,95321.08
2022-12-22T21:19:33.199Z,95308.20
2022-12-22T21:22:01.888Z,95322.13
2022-12-22T21:24:32.062Z,95321.55
2022-12-22T21:27:00.822Z,95323.33
2022-12-22T21:29:29.684Z,95323.31
2022-12-22T21:32:00.636Z,95319.26
2022-12-22T21:34:30.988Z,95315.05
2022-12-22T21:37:04.260Z,95319.88
2022-12-22T21:39:39.615Z,95315.27
2022-12-22T21:42:12.455Z,95316.44
2022-12-22T21:44:41.582Z,95321.11
2022-12-22T21:47:13.333Z,95322.13
2022-12-22T21:49:42.070Z,95320.08
2022-12-22T21:52:10.721Z,95316.28
2022-12-22T21:54:39.551Z,95315.78
2022-12-22T21:57:12.985Z,95316.22
2022-12-22T21:59:41.623Z,95313.24
2022-12-22T22:02:20.005Z,95315.13
2022-12-22T22:04:54.620Z,95312.54
2022-12-22T22:07:19.284Z,95305.85
2022-12-22T22:09:49.402Z,95303.95
2022-12-22T22:12:33.072Z,95305.52
2022-12-22T22:15:03.444Z,95308.34
2022-12-22T22:17:32.082Z,95300.67
2022-12-22T22:20:00.756Z,95278.84
2022-12-22T22:22:29.586Z,95300.95
2022-12-22T22:25:01.254Z,95299.02
2022-12-22T22:27:30.016Z,95297.33
2022-12-22T22:29:58.829Z,95290.71
2022-12-22T22:32:27.542Z,95288.34
2022-12-22T22:34:56.260Z,95294.59
2022-12-22T22:37:25.143Z,95293.80
2022-12-22T22:39:53.927Z,95291.17
2022-12-22T22:42:22.706Z,95282.88
2022-12-22T22:44:51.616Z,95271.14
2022-12-22T22:47:20.317Z,95274.64
2022-12-22T22:49:48.871Z,95278.61
2022-12-22T22:52:17.648Z,95276.19
2022-12-22T22:54:46.373Z,95269.98
2022-12-22T22:57:16.344Z,95265.81
2022-12-22T22:59:44.958Z,95268.66
2022-12-22T23:02:16.498Z,95261.11
2022-12-22T23:04:45.393Z,95254.64
2022-12-22T23:07:14.177Z,95257.48
2022-12-22T23:09:42.743Z,95253.39
2022-12-22T23:12:11.418Z,95250.51
2022-12-22T23:14:42.554Z,95258.60
2022-12-22T23:17:11.237Z,95255.63
2022-12-22T23:19:40.491Z,95218.63
2022-12-22T23:22:09.180Z,95246.32
2022-12-22T23:24:38.480Z,95244.37
2022-12-22T23:27:10.002Z,95241.59
2022-12-22T23:29:39.457Z,95225.62
2022-12-22T23:32:08.617Z,95222.37
2022-12-22T23:34:37.296Z,95220.09
2022-12-22T23:37:06.076Z,95222.59
2022-12-22T23:39:34.732Z,95211.20
2022-12-22T23:42:03.457Z,95217.58
2022-12-22T23:44:32.089Z,95218.75
2022-12-22T23:47:00.750Z,95213.80
2022-12-22T23:49:29.467Z,95212.53
2022-12-22T23:51:58.081Z,95215.71
2022-12-22T23:54:26.994Z,95220.95
2022-12-22T23:56:55.682Z,95215.05
2022-12-22T23:59:26.279Z,95216.53
